Athens, Pennsylvania
Current Conditions -  °F | °C
As of 8:53 PM on Thursday 20 Nov 2014 (Local Time) from KELM Reporting Station
Broken Clouds Broken Clouds  
Wind Chill: 15°   Ceiling: 8000
Heat Index: 25°   Visibility: 10mi
Dew Point:   Wind: 10mph
Humidity: 51%   Direction: 260°W
Pressure: 29.96"   Gusts: NA
Location:  41.96°N, 76.52°W
Report Text: KELM 210153Z 26009KT 10SM SCT060 BKN080 BKN090 M04/M13 A2996 RMK AO2 SLP155 T10391128
Loading
Personal Weather Stations






























Interactive Weather Map New forecast layout! Learn more

10-Day Weather Forecast

Advertisements
Track Severe Weather on mobile